KNDZ

Whiting Field NAS South Airport

Milton, Florida, USA
METAR KNDZ 172356Z 36007KT 10SM SCT014 SCT250 24/22 A3018 RMK SLP204 T02390217 10278 20233 53009
Observed Flight Rules
Oct-17 @ 23:56 UTC (2 hours ago) Visual Flight Rules
Wind Visibility Clouds
360° at 7 knots 10 miles
  • Scattered at 1,400' AGL
  • Scattered at 25,000' AGL
Temperatures Readings
Current 24°C / 75°F
Dewpoint 22°C / 72°F
Humidity 89%
Altimeter 30.18" Hg
Pressure 1020.4 hPa
Elevation 54
METAR KNDZ 172356Z 36007KT 10SM SCT014 SCT250 24/22 A3018 RMK SLP204 T02390217 10278 20233 53009
Observed Flight Rules
Oct-17 @ 23:56 UTC
(2 hours ago)
VFR
Wind Visibility
360° at 7 knots 10 miles
Clouds
  • Scattered at 1,400' AGL
  • Scattered at 25,000' AGL
Temperature Dewpoint
24°C / 75°F 22°C / 72°F
Humidity Altimeter Pressure
89% 30.18" Hg 1020.4 hPa